Kecel, Hungary
Current Conditions -  °F | °C
As of 10:15 PM on Sunday 25 Jan 2015 (Local Time) from LHKE Reporting Station
Light Rain Light Rain  
Wind Chill: 28°   Ceiling: 1200
Heat Index: 34°   Visibility: 1.2mi
Dew Point: 34°   Wind: 7mph
Humidity: 100%   Direction: 320°NW
Pressure: 30.12"   Gusts: NA
Location:  46.53°N, 19.24°E
Report Text: LHKE 252015Z 32006KT 2000 -RA BR SCT003 OVC012 01/01 Q1020 NOSIG RMK YLO
Loading
Personal Weather Stations






























Interactive Weather Map New forecast layout! Learn more

10-Day Weather Forecast

Advertisements
Track Severe Weather on mobile